Terminal Aerodrome Forecast
Issued by NWS

Home | Current Version | Previous Version | Text Only | Print | Product List | Glossary On
Versions: 1 2 3 4 5 6 7 8 9 10 11 12 13
000
FTUS44 KLIX 221720
TAFMSY
TAF
KMSY 221720Z 2218/2324 02011G19KT P6SM BKN130 BKN250
     FM222100 01013KT P6SM FEW110 SCT250
     FM232000 36009KT P6SM SKC=

USA.gov is the U.S. government's official web portal to all federal, state and local government web resources and services.